sensor_id;sensor_type;location;lat;lon;timestamp;P1;durP1;ratioP1;P2;durP2;ratioP2
69213;SDS011;56325;47.030;18.518;2023-01-15T00:00:52;5.70;;;4.97;;
69213;SDS011;56325;47.030;18.518;2023-01-15T00:03:27;7.27;;;4.23;;
69213;SDS011;56325;47.030;18.518;2023-01-15T00:06:03;7.53;;;4.47;;
69213;SDS011;56325;47.030;18.518;2023-01-15T00:08:37;4.63;;;4.23;;
69213;SDS011;56325;47.030;18.518;2023-01-15T00:11:12;4.07;;;3.60;;
69213;SDS011;56325;47.030;18.518;2023-01-15T00:13:47;4.67;;;4.17;;
69213;SDS011;56325;47.030;18.518;2023-01-15T00:16:22;4.07;;;3.77;;
69213;SDS011;56325;47.030;18.518;2023-01-15T00:18:58;4.77;;;4.23;;
69213;SDS011;56325;47.030;18.518;2023-01-15T00:21:37;4.70;;;4.30;;
69213;SDS011;56325;47.030;18.518;2023-01-15T00:24:12;5.30;;;4.20;;
69213;SDS011;56325;47.030;18.518;2023-01-15T00:27:03;7.10;;;4.73;;
69213;SDS011;56325;47.030;18.518;2023-01-15T00:29:58;4.77;;;4.13;;
69213;SDS011;56325;47.030;18.518;2023-01-15T00:32:32;4.73;;;4.27;;
69213;SDS011;56325;47.030;18.518;2023-01-15T00:35:09;5.70;;;4.17;;
69213;SDS011;56325;47.030;18.518;2023-01-15T00:37:48;4.93;;;4.47;;
69213;SDS011;56325;47.030;18.518;2023-01-15T00:40:25;5.10;;;4.43;;
69213;SDS011;56325;47.030;18.518;2023-01-15T00:42:59;8.30;;;4.30;;
69213;SDS011;56325;47.030;18.518;2023-01-15T00:45:33;6.63;;;4.10;;
69213;SDS011;56325;47.030;18.518;2023-01-15T00:48:08;4.10;;;3.70;;
69213;SDS011;56325;47.030;18.518;2023-01-15T00:50:44;4.53;;;4.10;;
69213;SDS011;56325;47.030;18.518;2023-01-15T00:53:20;4.40;;;4.00;;
69213;SDS011;56325;47.030;18.518;2023-01-15T00:55:55;3.67;;;3.47;;
69213;SDS011;56325;47.030;18.518;2023-01-15T00:58:30;5.07;;;4.23;;
69213;SDS011;56325;47.030;18.518;2023-01-15T01:01:04;3.83;;;3.50;;
69213;SDS011;56325;47.030;18.518;2023-01-15T01:03:39;10.03;;;4.07;;
69213;SDS011;56325;47.030;18.518;2023-01-15T01:06:14;5.80;;;3.50;;
69213;SDS011;56325;47.030;18.518;2023-01-15T01:08:50;5.17;;;3.90;;
69213;SDS011;56325;47.030;18.518;2023-01-15T01:11:25;7.03;;;3.40;;
69213;SDS011;56325;47.030;18.518;2023-01-15T01:14:04;3.57;;;3.37;;
69213;SDS011;56325;47.030;18.518;2023-01-15T01:16:39;5.03;;;4.13;;
69213;SDS011;56325;47.030;18.518;2023-01-15T01:19:16;3.70;;;3.40;;
69213;SDS011;56325;47.030;18.518;2023-01-15T01:21:53;4.37;;;3.97;;
69213;SDS011;56325;47.030;18.518;2023-01-15T01:24:29;3.50;;;3.20;;
69213;SDS011;56325;47.030;18.518;2023-01-15T01:27:04;4.07;;;3.70;;
69213;SDS011;56325;47.030;18.518;2023-01-15T01:29:38;4.33;;;3.93;;
69213;SDS011;56325;47.030;18.518;2023-01-15T01:32:13;3.87;;;3.37;;
69213;SDS011;56325;47.030;18.518;2023-01-15T01:34:48;6.20;;;4.17;;
69213;SDS011;56325;47.030;18.518;2023-01-15T01:37:22;5.53;;;3.30;;
69213;SDS011;56325;47.030;18.518;2023-01-15T01:39:59;3.93;;;3.50;;
69213;SDS011;56325;47.030;18.518;2023-01-15T01:42:34;4.03;;;3.73;;
69213;SDS011;56325;47.030;18.518;2023-01-15T01:45:16;4.67;;;4.37;;
69213;SDS011;56325;47.030;18.518;2023-01-15T01:47:57;4.53;;;3.90;;
69213;SDS011;56325;47.030;18.518;2023-01-15T01:50:35;5.30;;;4.17;;
69213;SDS011;56325;47.030;18.518;2023-01-15T01:53:13;4.27;;;3.73;;
69213;SDS011;56325;47.030;18.518;2023-01-15T01:55:51;3.90;;;3.70;;
69213;SDS011;56325;47.030;18.518;2023-01-15T01:58:29;5.53;;;4.53;;
69213;SDS011;56325;47.030;18.518;2023-01-15T02:01:04;5.23;;;4.60;;
69213;SDS011;56325;47.030;18.518;2023-01-15T02:03:39;7.27;;;4.83;;
69213;SDS011;56325;47.030;18.518;2023-01-15T02:06:14;7.00;;;5.50;;
69213;SDS011;56325;47.030;18.518;2023-01-15T02:08:49;4.73;;;3.93;;
69213;SDS011;56325;47.030;18.518;2023-01-15T02:11:25;4.37;;;3.97;;
69213;SDS011;56325;47.030;18.518;2023-01-15T02:14:02;5.27;;;4.17;;
69213;SDS011;56325;47.030;18.518;2023-01-15T02:16:42;8.70;;;4.63;;
69213;SDS011;56325;47.030;18.518;2023-01-15T02:19:21;5.17;;;4.80;;
69213;SDS011;56325;47.030;18.518;2023-01-15T02:22:13;6.03;;;5.20;;
69213;SDS011;56325;47.030;18.518;2023-01-15T02:25:04;6.43;;;4.50;;
69213;SDS011;56325;47.030;18.518;2023-01-15T02:27:46;6.70;;;4.40;;
69213;SDS011;56325;47.030;18.518;2023-01-15T02:30:27;5.27;;;4.10;;
69213;SDS011;56325;47.030;18.518;2023-01-15T02:33:05;4.53;;;3.90;;
69213;SDS011;56325;47.030;18.518;2023-01-15T02:35:45;4.50;;;4.10;;
69213;SDS011;56325;47.030;18.518;2023-01-15T02:38:23;4.97;;;3.87;;
69213;SDS011;56325;47.030;18.518;2023-01-15T02:41:03;5.65;;;4.45;;
69213;SDS011;56325;47.030;18.518;2023-01-15T02:43:50;9.60;;;4.47;;
69213;SDS011;56325;47.030;18.518;2023-01-15T02:46:30;5.07;;;4.10;;
69213;SDS011;56325;47.030;18.518;2023-01-15T02:49:07;6.33;;;4.20;;
69213;SDS011;56325;47.030;18.518;2023-01-15T02:51:47;4.90;;;4.50;;
69213;SDS011;56325;47.030;18.518;2023-01-15T02:54:29;4.03;;;3.83;;
69213;SDS011;56325;47.030;18.518;2023-01-15T02:57:08;5.90;;;5.13;;
69213;SDS011;56325;47.030;18.518;2023-01-15T02:59:47;4.97;;;4.57;;
69213;SDS011;56325;47.030;18.518;2023-01-15T03:02:24;8.10;;;4.87;;
69213;SDS011;56325;47.030;18.518;2023-01-15T03:05:05;4.80;;;4.15;;
69213;SDS011;56325;47.030;18.518;2023-01-15T03:07:43;6.77;;;5.00;;
69213;SDS011;56325;47.030;18.518;2023-01-15T03:10:26;4.43;;;4.03;;
69213;SDS011;56325;47.030;18.518;2023-01-15T03:13:09;5.20;;;4.63;;
69213;SDS011;56325;47.030;18.518;2023-01-15T03:15:52;4.17;;;3.87;;
69213;SDS011;56325;47.030;18.518;2023-01-15T03:18:51;6.07;;;4.47;;
69213;SDS011;56325;47.030;18.518;2023-01-15T03:21:31;5.97;;;5.37;;
69213;SDS011;56325;47.030;18.518;2023-01-15T03:24:13;11.73;;;5.27;;
69213;SDS011;56325;47.030;18.518;2023-01-15T03:26:52;5.73;;;5.20;;
69213;SDS011;56325;47.030;18.518;2023-01-15T03:29:29;7.97;;;5.27;;
69213;SDS011;56325;47.030;18.518;2023-01-15T03:32:09;4.90;;;4.23;;
69213;SDS011;56325;47.030;18.518;2023-01-15T03:34:44;5.97;;;5.37;;
69213;SDS011;56325;47.030;18.518;2023-01-15T03:37:23;12.10;;;5.20;;
69213;SDS011;56325;47.030;18.518;2023-01-15T03:40:01;6.40;;;5.30;;
69213;SDS011;56325;47.030;18.518;2023-01-15T03:42:41;6.20;;;5.63;;
69213;SDS011;56325;47.030;18.518;2023-01-15T03:45:42;8.10;;;6.00;;
69213;SDS011;56325;47.030;18.518;2023-01-15T03:48:23;9.07;;;5.47;;
69213;SDS011;56325;47.030;18.518;2023-01-15T03:51:09;6.70;;;5.77;;
69213;SDS011;56325;47.030;18.518;2023-01-15T03:53:48;7.65;;;4.87;;
69213;SDS011;56325;47.030;18.518;2023-01-15T03:56:28;6.23;;;5.13;;
69213;SDS011;56325;47.030;18.518;2023-01-15T03:59:09;6.33;;;5.43;;
69213;SDS011;56325;47.030;18.518;2023-01-15T04:01:46;12.17;;;6.50;;
69213;SDS011;56325;47.030;18.518;2023-01-15T04:04:26;5.13;;;4.70;;
69213;SDS011;56325;47.030;18.518;2023-01-15T04:07:02;5.77;;;5.20;;
69213;SDS011;56325;47.030;18.518;2023-01-15T04:09:40;6.83;;;5.47;;
69213;SDS011;56325;47.030;18.518;2023-01-15T04:12:15;9.50;;;6.20;;
69213;SDS011;56325;47.030;18.518;2023-01-15T04:14:50;6.77;;;6.07;;
69213;SDS011;56325;47.030;18.518;2023-01-15T04:17:24;6.50;;;5.70;;
69213;SDS011;56325;47.030;18.518;2023-01-15T04:20:02;11.07;;;5.47;;
69213;SDS011;56325;47.030;18.518;2023-01-15T04:22:39;6.57;;;5.43;;
69213;SDS011;56325;47.030;18.518;2023-01-15T04:25:14;6.10;;;5.60;;
69213;SDS011;56325;47.030;18.518;2023-01-15T04:27:48;5.50;;;5.00;;
69213;SDS011;56325;47.030;18.518;2023-01-15T04:30:23;8.30;;;6.30;;
69213;SDS011;56325;47.030;18.518;2023-01-15T04:32:58;6.77;;;6.27;;
69213;SDS011;56325;47.030;18.518;2023-01-15T04:35:34;6.40;;;5.80;;
69213;SDS011;56325;47.030;18.518;2023-01-15T04:38:10;7.77;;;5.70;;
69213;SDS011;56325;47.030;18.518;2023-01-15T04:40:45;8.27;;;6.00;;
69213;SDS011;56325;47.030;18.518;2023-01-15T04:43:34;6.03;;;5.37;;
69213;SDS011;56325;47.030;18.518;2023-01-15T04:46:26;9.13;;;5.53;;
69213;SDS011;56325;47.030;18.518;2023-01-15T04:49:00;8.40;;;7.03;;
69213;SDS011;56325;47.030;18.518;2023-01-15T04:51:37;8.03;;;7.23;;
69213;SDS011;56325;47.030;18.518;2023-01-15T04:54:12;7.50;;;6.37;;
69213;SDS011;56325;47.030;18.518;2023-01-15T04:56:49;7.77;;;5.80;;
69213;SDS011;56325;47.030;18.518;2023-01-15T04:59:25;7.03;;;5.70;;
69213;SDS011;56325;47.030;18.518;2023-01-15T05:02:00;4.83;;;4.53;;
69213;SDS011;56325;47.030;18.518;2023-01-15T05:04:39;7.53;;;6.13;;
69213;SDS011;56325;47.030;18.518;2023-01-15T05:07:15;6.60;;;5.90;;
69213;SDS011;56325;47.030;18.518;2023-01-15T05:09:49;5.80;;;5.20;;
69213;SDS011;56325;47.030;18.518;2023-01-15T05:12:27;7.10;;;5.70;;
69213;SDS011;56325;47.030;18.518;2023-01-15T05:15:01;8.90;;;6.23;;
69213;SDS011;56325;47.030;18.518;2023-01-15T05:17:36;9.17;;;6.50;;
69213;SDS011;56325;47.030;18.518;2023-01-15T05:20:12;7.60;;;6.00;;
69213;SDS011;56325;47.030;18.518;2023-01-15T05:22:50;6.50;;;5.90;;
69213;SDS011;56325;47.030;18.518;2023-01-15T05:25:24;8.00;;;7.20;;
69213;SDS011;56325;47.030;18.518;2023-01-15T05:27:59;19.83;;;10.50;;
69213;SDS011;56325;47.030;18.518;2023-01-15T05:30:34;59.00;;;20.50;;
69213;SDS011;56325;47.030;18.518;2023-01-15T05:33:08;43.03;;;22.50;;
69213;SDS011;56325;47.030;18.518;2023-01-15T05:35:43;44.43;;;19.37;;
69213;SDS011;56325;47.030;18.518;2023-01-15T05:38:19;21.27;;;12.73;;
69213;SDS011;56325;47.030;18.518;2023-01-15T05:40:53;13.53;;;9.77;;
69213;SDS011;56325;47.030;18.518;2023-01-15T05:43:27;18.00;;;10.53;;
69213;SDS011;56325;47.030;18.518;2023-01-15T05:46:02;9.77;;;8.77;;
69213;SDS011;56325;47.030;18.518;2023-01-15T05:48:37;14.60;;;9.20;;
69213;SDS011;56325;47.030;18.518;2023-01-15T05:51:11;21.03;;;12.37;;
69213;SDS011;56325;47.030;18.518;2023-01-15T05:53:47;15.60;;;10.50;;
69213;SDS011;56325;47.030;18.518;2023-01-15T05:56:21;12.77;;;9.10;;
69213;SDS011;56325;47.030;18.518;2023-01-15T05:58:56;9.63;;;6.37;;
69213;SDS011;56325;47.030;18.518;2023-01-15T06:01:30;15.60;;;7.83;;
69213;SDS011;56325;47.030;18.518;2023-01-15T06:04:05;21.57;;;10.57;;
69213;SDS011;56325;47.030;18.518;2023-01-15T06:06:40;24.03;;;13.90;;
69213;SDS011;56325;47.030;18.518;2023-01-15T06:09:17;20.93;;;12.70;;
69213;SDS011;56325;47.030;18.518;2023-01-15T06:11:52;16.43;;;10.67;;
69213;SDS011;56325;47.030;18.518;2023-01-15T06:14:27;74.53;;;29.00;;
69213;SDS011;56325;47.030;18.518;2023-01-15T06:17:01;99.00;;;33.90;;
69213;SDS011;56325;47.030;18.518;2023-01-15T06:19:36;43.30;;;20.80;;
69213;SDS011;56325;47.030;18.518;2023-01-15T06:22:10;49.10;;;30.30;;
69213;SDS011;56325;47.030;18.518;2023-01-15T06:24:46;32.20;;;16.10;;
69213;SDS011;56325;47.030;18.518;2023-01-15T06:27:20;18.27;;;11.07;;
69213;SDS011;56325;47.030;18.518;2023-01-15T06:29:56;28.43;;;13.57;;
69213;SDS011;56325;47.030;18.518;2023-01-15T06:32:30;24.13;;;12.83;;
69213;SDS011;56325;47.030;18.518;2023-01-15T06:35:05;26.40;;;16.40;;
69213;SDS011;56325;47.030;18.518;2023-01-15T06:37:40;15.50;;;11.03;;
69213;SDS011;56325;47.030;18.518;2023-01-15T06:40:18;17.67;;;11.73;;
69213;SDS011;56325;47.030;18.518;2023-01-15T06:42:53;18.17;;;12.33;;
69213;SDS011;56325;47.030;18.518;2023-01-15T06:45:48;17.33;;;11.40;;
69213;SDS011;56325;47.030;18.518;2023-01-15T06:48:40;22.30;;;12.53;;
69213;SDS011;56325;47.030;18.518;2023-01-15T06:51:15;17.70;;;12.33;;
69213;SDS011;56325;47.030;18.518;2023-01-15T06:53:51;32.37;;;16.27;;
69213;SDS011;56325;47.030;18.518;2023-01-15T06:56:27;21.33;;;14.20;;
69213;SDS011;56325;47.030;18.518;2023-01-15T06:59:02;20.27;;;12.03;;
69213;SDS011;56325;47.030;18.518;2023-01-15T07:02:53;25.45;;;15.02;;
69213;SDS011;56325;47.030;18.518;2023-01-15T07:05:28;16.07;;;10.77;;
69213;SDS011;56325;47.030;18.518;2023-01-15T07:08:02;20.03;;;12.43;;
69213;SDS011;56325;47.030;18.518;2023-01-15T07:10:38;9.23;;;7.37;;
69213;SDS011;56325;47.030;18.518;2023-01-15T07:13:12;15.07;;;8.33;;
69213;SDS011;56325;47.030;18.518;2023-01-15T07:15:47;12.97;;;7.40;;
69213;SDS011;56325;47.030;18.518;2023-01-15T07:18:22;12.07;;;6.90;;
69213;SDS011;56325;47.030;18.518;2023-01-15T07:20:58;13.53;;;7.07;;
69213;SDS011;56325;47.030;18.518;2023-01-15T07:23:32;7.13;;;6.43;;
69213;SDS011;56325;47.030;18.518;2023-01-15T07:26:07;7.23;;;6.53;;
69213;SDS011;56325;47.030;18.518;2023-01-15T07:28:42;8.17;;;6.67;;
69213;SDS011;56325;47.030;18.518;2023-01-15T07:31:17;14.57;;;7.00;;
69213;SDS011;56325;47.030;18.518;2023-01-15T07:33:53;116.90;;;79.13;;
69213;SDS011;56325;47.030;18.518;2023-01-15T07:36:28;18.23;;;9.57;;
69213;SDS011;56325;47.030;18.518;2023-01-15T07:39:03;26.57;;;12.40;;
69213;SDS011;56325;47.030;18.518;2023-01-15T07:41:38;26.50;;;16.90;;
69213;SDS011;56325;47.030;18.518;2023-01-15T07:44:31;16.27;;;9.67;;
69213;SDS011;56325;47.030;18.518;2023-01-15T07:47:23;23.40;;;7.63;;
69213;SDS011;56325;47.030;18.518;2023-01-15T07:50:24;12.82;;;7.65;;
69213;SDS011;56325;47.030;18.518;2023-01-15T07:52:59;11.77;;;7.40;;
69213;SDS011;56325;47.030;18.518;2023-01-15T07:55:34;18.30;;;10.10;;
69213;SDS011;56325;47.030;18.518;2023-01-15T07:58:09;38.07;;;14.33;;
69213;SDS011;56325;47.030;18.518;2023-01-15T08:00:46;86.37;;;29.93;;
69213;SDS011;56325;47.030;18.518;2023-01-15T08:03:20;77.00;;;25.67;;
69213;SDS011;56325;47.030;18.518;2023-01-15T08:05:56;82.10;;;27.57;;
69213;SDS011;56325;47.030;18.518;2023-01-15T08:08:31;74.10;;;27.13;;
69213;SDS011;56325;47.030;18.518;2023-01-15T08:11:05;121.20;;;36.60;;
69213;SDS011;56325;47.030;18.518;2023-01-15T08:13:56;52.53;;;20.13;;
69213;SDS011;56325;47.030;18.518;2023-01-15T08:16:48;37.67;;;16.93;;
69213;SDS011;56325;47.030;18.518;2023-01-15T08:19:23;49.07;;;20.53;;
69213;SDS011;56325;47.030;18.518;2023-01-15T08:21:59;37.13;;;17.20;;
69213;SDS011;56325;47.030;18.518;2023-01-15T08:24:34;23.67;;;14.07;;
69213;SDS011;56325;47.030;18.518;2023-01-15T08:27:08;13.30;;;8.00;;
69213;SDS011;56325;47.030;18.518;2023-01-15T08:29:47;30.30;;;15.03;;
69213;SDS011;56325;47.030;18.518;2023-01-15T08:32:22;44.67;;;20.30;;
69213;SDS011;56325;47.030;18.518;2023-01-15T08:34:57;28.03;;;13.43;;
69213;SDS011;56325;47.030;18.518;2023-01-15T08:37:33;28.77;;;15.63;;
69213;SDS011;56325;47.030;18.518;2023-01-15T08:40:09;36.43;;;17.13;;
69213;SDS011;56325;47.030;18.518;2023-01-15T08:42:45;23.17;;;13.23;;
69213;SDS011;56325;47.030;18.518;2023-01-15T08:45:20;12.73;;;8.00;;
69213;SDS011;56325;47.030;18.518;2023-01-15T08:47:55;29.87;;;24.23;;
69213;SDS011;56325;47.030;18.518;2023-01-15T08:50:30;12.83;;;9.13;;
69213;SDS011;56325;47.030;18.518;2023-01-15T08:53:09;13.67;;;10.00;;
69213;SDS011;56325;47.030;18.518;2023-01-15T08:55:45;12.00;;;8.93;;
69213;SDS011;56325;47.030;18.518;2023-01-15T08:58:39;12.40;;;8.50;;
69213;SDS011;56325;47.030;18.518;2023-01-15T09:01:34;10.47;;;8.40;;
69213;SDS011;56325;47.030;18.518;2023-01-15T09:04:09;9.60;;;8.23;;
69213;SDS011;56325;47.030;18.518;2023-01-15T09:06:47;14.47;;;8.17;;
69213;SDS011;56325;47.030;18.518;2023-01-15T09:09:23;11.10;;;8.53;;
69213;SDS011;56325;47.030;18.518;2023-01-15T09:11:58;10.13;;;7.40;;
69213;SDS011;56325;47.030;18.518;2023-01-15T09:14:32;15.53;;;8.50;;
69213;SDS011;56325;47.030;18.518;2023-01-15T09:17:26;10.10;;;7.10;;
69213;SDS011;56325;47.030;18.518;2023-01-15T09:20:01;11.73;;;8.23;;
69213;SDS011;56325;47.030;18.518;2023-01-15T09:22:36;8.03;;;7.17;;
69213;SDS011;56325;47.030;18.518;2023-01-15T09:25:12;12.00;;;8.23;;
69213;SDS011;56325;47.030;18.518;2023-01-15T09:27:48;11.53;;;6.00;;
69213;SDS011;56325;47.030;18.518;2023-01-15T09:30:22;18.63;;;8.87;;
69213;SDS011;56325;47.030;18.518;2023-01-15T09:32:57;9.07;;;6.60;;
69213;SDS011;56325;47.030;18.518;2023-01-15T09:35:31;11.30;;;7.50;;
69213;SDS011;56325;47.030;18.518;2023-01-15T09:38:06;7.43;;;6.47;;
69213;SDS011;56325;47.030;18.518;2023-01-15T09:40:45;28.43;;;10.40;;
69213;SDS011;56325;47.030;18.518;2023-01-15T09:43:32;20.80;;;10.47;;
69213;SDS011;56325;47.030;18.518;2023-01-15T09:46:24;45.67;;;19.13;;
69213;SDS011;56325;47.030;18.518;2023-01-15T09:49:10;24.30;;;11.83;;
69213;SDS011;56325;47.030;18.518;2023-01-15T09:51:57;33.57;;;14.83;;
69213;SDS011;56325;47.030;18.518;2023-01-15T09:54:48;11.03;;;8.17;;
69213;SDS011;56325;47.030;18.518;2023-01-15T09:57:34;14.67;;;8.43;;
69213;SDS011;56325;47.030;18.518;2023-01-15T10:00:12;15.87;;;9.37;;
69213;SDS011;56325;47.030;18.518;2023-01-15T10:05:28;7.50;;;6.37;;
69213;SDS011;56325;47.030;18.518;2023-01-15T10:08:08;5.77;;;4.60;;
69213;SDS011;56325;47.030;18.518;2023-01-15T10:10:47;6.77;;;6.00;;
69213;SDS011;56325;47.030;18.518;2023-01-15T10:16:06;7.37;;;6.23;;
69213;SDS011;56325;47.030;18.518;2023-01-15T10:18:42;10.43;;;6.70;;
69213;SDS011;56325;47.030;18.518;2023-01-15T10:21:19;9.27;;;7.83;;
69213;SDS011;56325;47.030;18.518;2023-01-15T10:24:04;5.40;;;4.90;;
69213;SDS011;56325;47.030;18.518;2023-01-15T10:26:44;6.20;;;5.60;;
69213;SDS011;56325;47.030;18.518;2023-01-15T10:29:29;6.47;;;5.77;;
69213;SDS011;56325;47.030;18.518;2023-01-15T10:32:15;7.40;;;5.73;;
69213;SDS011;56325;47.030;18.518;2023-01-15T10:35:14;8.27;;;5.33;;
69213;SDS011;56325;47.030;18.518;2023-01-15T10:37:58;9.67;;;7.10;;
69213;SDS011;56325;47.030;18.518;2023-01-15T10:44:10;4.77;;;4.17;;
69213;SDS011;56325;47.030;18.518;2023-01-15T10:46:54;7.83;;;4.80;;
69213;SDS011;56325;47.030;18.518;2023-01-15T10:49:32;5.13;;;4.70;;
69213;SDS011;56325;47.030;18.518;2023-01-15T10:52:11;7.27;;;4.83;;
69213;SDS011;56325;47.030;18.518;2023-01-15T10:54:56;7.73;;;5.30;;
69213;SDS011;56325;47.030;18.518;2023-01-15T10:57:39;7.90;;;5.70;;
69213;SDS011;56325;47.030;18.518;2023-01-15T11:00:18;4.47;;;4.07;;
69213;SDS011;56325;47.030;18.518;2023-01-15T11:02:58;35.07;;;13.20;;
69213;SDS011;56325;47.030;18.518;2023-01-15T11:05:35;17.87;;;9.30;;
69213;SDS011;56325;47.030;18.518;2023-01-15T11:08:13;8.57;;;5.33;;
69213;SDS011;56325;47.030;18.518;2023-01-15T11:11:17;9.63;;;5.93;;
69213;SDS011;56325;47.030;18.518;2023-01-15T11:14:16;9.53;;;5.67;;
69213;SDS011;56325;47.030;18.518;2023-01-15T11:17:14;3.93;;;3.53;;
69213;SDS011;56325;47.030;18.518;2023-01-15T11:20:13;11.13;;;7.53;;
69213;SDS011;56325;47.030;18.518;2023-01-15T11:22:53;10.30;;;6.83;;
69213;SDS011;56325;47.030;18.518;2023-01-15T11:25:29;5.50;;;4.67;;
69213;SDS011;56325;47.030;18.518;2023-01-15T11:28:05;4.27;;;3.97;;
69213;SDS011;56325;47.030;18.518;2023-01-15T11:30:41;6.93;;;4.53;;
69213;SDS011;56325;47.030;18.518;2023-01-15T11:33:20;3.67;;;3.20;;
69213;SDS011;56325;47.030;18.518;2023-01-15T11:35:58;4.63;;;3.07;;
69213;SDS011;56325;47.030;18.518;2023-01-15T11:38:41;3.80;;;3.58;;
69213;SDS011;56325;47.030;18.518;2023-01-15T11:41:20;5.27;;;4.23;;
69213;SDS011;56325;47.030;18.518;2023-01-15T11:43:57;4.50;;;4.13;;
69213;SDS011;56325;47.030;18.518;2023-01-15T11:46:49;4.77;;;3.60;;
69213;SDS011;56325;47.030;18.518;2023-01-15T11:49:48;4.23;;;3.87;;
69213;SDS011;56325;47.030;18.518;2023-01-15T11:52:42;4.07;;;3.77;;
69213;SDS011;56325;47.030;18.518;2023-01-15T11:55:22;4.10;;;3.80;;
69213;SDS011;56325;47.030;18.518;2023-01-15T11:57:59;4.10;;;3.80;;
69213;SDS011;56325;47.030;18.518;2023-01-15T12:00:34;2.97;;;2.73;;
69213;SDS011;56325;47.030;18.518;2023-01-15T12:03:16;5.20;;;3.73;;
69213;SDS011;56325;47.030;18.518;2023-01-15T12:05:54;5.67;;;3.33;;
69213;SDS011;56325;47.030;18.518;2023-01-15T12:08:42;2.80;;;2.60;;
69213;SDS011;56325;47.030;18.518;2023-01-15T12:11:32;3.17;;;2.90;;
69213;SDS011;56325;47.030;18.518;2023-01-15T12:14:27;4.37;;;3.67;;
69213;SDS011;56325;47.030;18.518;2023-01-15T12:17:15;8.27;;;3.87;;
69213;SDS011;56325;47.030;18.518;2023-01-15T12:20:05;3.47;;;3.28;;
69213;SDS011;56325;47.030;18.518;2023-01-15T12:25:56;4.07;;;3.73;;
69213;SDS011;56325;47.030;18.518;2023-01-15T12:28:42;4.00;;;3.73;;
69213;SDS011;56325;47.030;18.518;2023-01-15T12:31:24;3.20;;;3.00;;
69213;SDS011;56325;47.030;18.518;2023-01-15T12:34:06;5.93;;;3.63;;
69213;SDS011;56325;47.030;18.518;2023-01-15T12:36:50;3.07;;;2.87;;
69213;SDS011;56325;47.030;18.518;2023-01-15T12:39:28;3.37;;;3.03;;
69213;SDS011;56325;47.030;18.518;2023-01-15T12:42:10;4.20;;;3.77;;
69213;SDS011;56325;47.030;18.518;2023-01-15T12:45:06;4.13;;;3.63;;
69213;SDS011;56325;47.030;18.518;2023-01-15T12:47:44;5.43;;;3.40;;
69213;SDS011;56325;47.030;18.518;2023-01-15T12:50:26;3.58;;;3.28;;
69213;SDS011;56325;47.030;18.518;2023-01-15T12:53:10;4.07;;;3.77;;
69213;SDS011;56325;47.030;18.518;2023-01-15T12:55:50;12.13;;;10.87;;
69213;SDS011;56325;47.030;18.518;2023-01-15T12:58:37;4.62;;;3.60;;
69213;SDS011;56325;47.030;18.518;2023-01-15T13:01:18;3.93;;;3.50;;
69213;SDS011;56325;47.030;18.518;2023-01-15T13:03:59;4.57;;;4.17;;
69213;SDS011;56325;47.030;18.518;2023-01-15T13:06:44;4.50;;;3.93;;
69213;SDS011;56325;47.030;18.518;2023-01-15T13:09:30;16.37;;;8.33;;
69213;SDS011;56325;47.030;18.518;2023-01-15T13:12:11;28.70;;;12.50;;
69213;SDS011;56325;47.030;18.518;2023-01-15T13:14:48;32.80;;;11.13;;
69213;SDS011;56325;47.030;18.518;2023-01-15T13:17:25;58.40;;;16.10;;
69213;SDS011;56325;47.030;18.518;2023-01-15T13:20:11;47.03;;;15.03;;
69213;SDS011;56325;47.030;18.518;2023-01-15T13:23:00;39.97;;;14.20;;
69213;SDS011;56325;47.030;18.518;2023-01-15T13:25:51;24.93;;;11.20;;
69213;SDS011;56325;47.030;18.518;2023-01-15T13:28:35;103.23;;;28.43;;
69213;SDS011;56325;47.030;18.518;2023-01-15T13:34:33;71.90;;;25.05;;
69213;SDS011;56325;47.030;18.518;2023-01-15T13:37:15;53.50;;;20.30;;
69213;SDS011;56325;47.030;18.518;2023-01-15T13:39:56;97.93;;;35.00;;
69213;SDS011;56325;47.030;18.518;2023-01-15T13:42:35;94.45;;;29.40;;
69213;SDS011;56325;47.030;18.518;2023-01-15T13:45:22;47.50;;;19.60;;
69213;SDS011;56325;47.030;18.518;2023-01-15T13:48:06;32.50;;;14.83;;
69213;SDS011;56325;47.030;18.518;2023-01-15T13:53:26;12.63;;;7.72;;
69213;SDS011;56325;47.030;18.518;2023-01-15T13:56:03;7.73;;;6.10;;
69213;SDS011;56325;47.030;18.518;2023-01-15T13:58:50;7.90;;;5.83;;
69213;SDS011;56325;47.030;18.518;2023-01-15T14:01:30;6.07;;;5.57;;
69213;SDS011;56325;47.030;18.518;2023-01-15T14:04:11;4.47;;;4.23;;
69213;SDS011;56325;47.030;18.518;2023-01-15T14:09:27;4.20;;;3.90;;
69213;SDS011;56325;47.030;18.518;2023-01-15T14:12:06;5.87;;;5.37;;
69213;SDS011;56325;47.030;18.518;2023-01-15T14:15:00;4.60;;;4.20;;
69213;SDS011;56325;47.030;18.518;2023-01-15T14:20:59;4.20;;;3.47;;
69213;SDS011;56325;47.030;18.518;2023-01-15T14:23:48;4.73;;;4.20;;
69213;SDS011;56325;47.030;18.518;2023-01-15T14:26:41;6.30;;;5.10;;
69213;SDS011;56325;47.030;18.518;2023-01-15T14:29:26;4.30;;;3.90;;
69213;SDS011;56325;47.030;18.518;2023-01-15T14:32:30;6.77;;;6.07;;
69213;SDS011;56325;47.030;18.518;2023-01-15T14:35:21;10.40;;;5.80;;
69213;SDS011;56325;47.030;18.518;2023-01-15T14:37:58;5.07;;;4.67;;
69213;SDS011;56325;47.030;18.518;2023-01-15T14:40:39;6.72;;;6.18;;
69213;SDS011;56325;47.030;18.518;2023-01-15T14:43:27;9.47;;;6.17;;
69213;SDS011;56325;47.030;18.518;2023-01-15T14:46:08;9.00;;;8.20;;
69213;SDS011;56325;47.030;18.518;2023-01-15T14:48:48;9.07;;;6.03;;
69213;SDS011;56325;47.030;18.518;2023-01-15T14:51:24;15.83;;;8.70;;
69213;SDS011;56325;47.030;18.518;2023-01-15T14:54:01;13.73;;;8.97;;
69213;SDS011;56325;47.030;18.518;2023-01-15T14:56:41;22.07;;;13.10;;
69213;SDS011;56325;47.030;18.518;2023-01-15T14:59:19;28.77;;;13.77;;
69213;SDS011;56325;47.030;18.518;2023-01-15T15:03:00;25.25;;;11.27;;
69213;SDS011;56325;47.030;18.518;2023-01-15T15:05:37;21.10;;;12.53;;
69213;SDS011;56325;47.030;18.518;2023-01-15T15:08:17;16.40;;;9.67;;
69213;SDS011;56325;47.030;18.518;2023-01-15T15:10:52;15.37;;;9.70;;
69213;SDS011;56325;47.030;18.518;2023-01-15T15:13:30;9.23;;;6.53;;
69213;SDS011;56325;47.030;18.518;2023-01-15T15:16:10;12.43;;;7.85;;
69213;SDS011;56325;47.030;18.518;2023-01-15T15:18:53;11.73;;;7.40;;
69213;SDS011;56325;47.030;18.518;2023-01-15T15:21:35;16.43;;;9.50;;
69213;SDS011;56325;47.030;18.518;2023-01-15T15:24:15;8.37;;;7.13;;
69213;SDS011;56325;47.030;18.518;2023-01-15T15:26:54;15.90;;;10.23;;
69213;SDS011;56325;47.030;18.518;2023-01-15T15:29:28;14.47;;;10.00;;
69213;SDS011;56325;47.030;18.518;2023-01-15T15:32:03;7.93;;;7.03;;
69213;SDS011;56325;47.030;18.518;2023-01-15T15:34:42;5.67;;;5.17;;
69213;SDS011;56325;47.030;18.518;2023-01-15T15:37:21;12.43;;;7.80;;
69213;SDS011;56325;47.030;18.518;2023-01-15T15:39:58;10.53;;;6.57;;
69213;SDS011;56325;47.030;18.518;2023-01-15T15:42:36;13.40;;;8.77;;
69213;SDS011;56325;47.030;18.518;2023-01-15T15:45:33;25.20;;;11.23;;
69213;SDS011;56325;47.030;18.518;2023-01-15T15:48:28;46.13;;;16.83;;
69213;SDS011;56325;47.030;18.518;2023-01-15T15:51:31;26.67;;;12.50;;
69213;SDS011;56325;47.030;18.518;2023-01-15T15:56:49;27.90;;;12.03;;
69213;SDS011;56325;47.030;18.518;2023-01-15T15:59:29;24.50;;;12.57;;
69213;SDS011;56325;47.030;18.518;2023-01-15T16:02:08;28.47;;;12.00;;
69213;SDS011;56325;47.030;18.518;2023-01-15T16:04:50;27.10;;;12.87;;
69213;SDS011;56325;47.030;18.518;2023-01-15T16:07:28;18.60;;;9.77;;